Chicago O'Hare International Airport
KORD : now visible

Airfield :











YOU CAN JOIN US ON...

 
LOGIN :

Register | Disclaimer

   EN    FR    IT 

 









Legend :    VFR   Marginal VFR   IFR   Intensive IFR   Very Intensive IFR
Visi :
Ceiling :
>= 8 km
>= 3000ft
5 to 8 km
1000 to 3000 ft
1500m to 5 km
500 to 1000 ft
800 to 1500m
200 to 500 ft
< 800m
< 200 ft
Symbols :   Thunderstorms  Fog  Heavy snow  Heavy precipitations  Wind > 20 kt






- Airport Elevation : 672 ft
- IATA code : ORD


KORD - Chicago O'Hare International

CURRENT METAR :
  • 171551Z 12015G21KT 10SM FEW018 BKN210 OVC250 M04/M08 A3069 RMK AO2 SLP405 T10391083

EXPIRED METARs :
  • 171537Z 12014KT 10SM SCT018 OVC210 M04/M08 A3069 RMK AO2 T10391078
  • 171451Z 12004KT 10SM OVC019 M05/M09 A3072 RMK AO2 SLP417 T10501089 55012
  • 171351Z 00000KT 10SM OVC021 M08/M11 A3072 RMK AO2 SLP416 T10781106
  • 171251Z 01003KT 10SM OVC019 M08/M12 A3075 RMK AO2 SLP426 T10831117

TAF KORD
Valid from the 17 at 15:00 until the 18 at 18:00 UTC


171454Z 1715/1818 14008KT P6SM BKN018 OVC200
FM171600 13012G17KT P6SM FEW020 OVC080
TEMPO 1722/1723 1 1/2SM -SN BKN025 OVC050
FM172300 13015G23KT 1 1/2SM -SN BR OVC009
TEMPO 1723/1802 1/2SM -SN FG VV007
FM180500 13015G23KT 2SM -SNPL BR OVC009
FM180700 15015G25KT 3SM -FZRAPLSN BR OVC007
FM181000 16015G25KT 3SM -DZRA BR OVC006
FM181300 19015G25KT 3SM -RA BR OVC005
FM181600 25020G30KT P6SM OVC009



MET'MAP, your aeronautical weather chart ! - Copyright ORBIFLY December 2007 - Disclaimer

ORBIFLY MET'MAP TEAM :

Programming & Development : Alexandra Zaïnal
Concept & original design : Baudouin d'Aumeries
Assistance for programming : Marc-Olivier Méhu
Technical & hardware support : Manuel Goepfert

Contact : metmap@orbifly.com




SOURCES & CREDITS :

   NOAA       Earth
Advisory